sensor_id;sensor_type;location;lat;lon;timestamp;P1;durP1;ratioP1;P2;durP2;ratioP2
78015;SDS011;67223;51.102;5.882;2023-07-09T00:00:48;3.70;;;1.87;;
78015;SDS011;67223;51.102;5.882;2023-07-09T00:03:17;9.02;;;2.50;;
78015;SDS011;67223;51.102;5.882;2023-07-09T00:05:45;2.05;;;1.58;;
78015;SDS011;67223;51.102;5.882;2023-07-09T00:08:22;1.73;;;1.63;;
78015;SDS011;67223;51.102;5.882;2023-07-09T00:10:53;6.22;;;2.50;;
78015;SDS011;67223;51.102;5.882;2023-07-09T00:13:20;2.67;;;2.47;;
78015;SDS011;67223;51.102;5.882;2023-07-09T00:15:46;2.45;;;2.15;;
78015;SDS011;67223;51.102;5.882;2023-07-09T00:18:11;2.92;;;2.45;;
78015;SDS011;67223;51.102;5.882;2023-07-09T00:20:37;2.97;;;2.20;;
78015;SDS011;67223;51.102;5.882;2023-07-09T00:23:05;5.23;;;2.60;;
78015;SDS011;67223;51.102;5.882;2023-07-09T00:25:31;1.98;;;1.75;;
78015;SDS011;67223;51.102;5.882;2023-07-09T00:27:56;4.73;;;2.63;;
78015;SDS011;67223;51.102;5.882;2023-07-09T00:30:22;2.88;;;2.53;;
78015;SDS011;67223;51.102;5.882;2023-07-09T00:32:49;4.28;;;2.40;;
78015;SDS011;67223;51.102;5.882;2023-07-09T00:35:17;2.77;;;2.17;;
78015;SDS011;67223;51.102;5.882;2023-07-09T00:37:43;2.42;;;2.03;;
78015;SDS011;67223;51.102;5.882;2023-07-09T00:40:31;2.58;;;1.83;;
78015;SDS011;67223;51.102;5.882;2023-07-09T00:42:59;2.13;;;1.75;;
78015;SDS011;67223;51.102;5.882;2023-07-09T00:45:35;2.20;;;2.00;;
78015;SDS011;67223;51.102;5.882;2023-07-09T00:48:03;4.37;;;2.10;;
78015;SDS011;67223;51.102;5.882;2023-07-09T00:53:19;4.88;;;2.85;;
78015;SDS011;67223;51.102;5.882;2023-07-09T00:55:56;3.27;;;2.73;;
78015;SDS011;67223;51.102;5.882;2023-07-09T00:58:29;3.28;;;2.28;;
78015;SDS011;67223;51.102;5.882;2023-07-09T01:01:00;2.22;;;2.03;;
78015;SDS011;67223;51.102;5.882;2023-07-09T01:03:31;3.78;;;2.83;;
78015;SDS011;67223;51.102;5.882;2023-07-09T01:06:00;2.15;;;1.95;;
78015;SDS011;67223;51.102;5.882;2023-07-09T01:08:28;4.47;;;2.50;;
78015;SDS011;67223;51.102;5.882;2023-07-09T01:10:57;4.05;;;2.00;;
78015;SDS011;67223;51.102;5.882;2023-07-09T01:13:27;4.35;;;2.55;;
78015;SDS011;67223;51.102;5.882;2023-07-09T01:15:57;1.55;;;1.45;;
78015;SDS011;67223;51.102;5.882;2023-07-09T01:18:23;2.80;;;2.55;;
78015;SDS011;67223;51.102;5.882;2023-07-09T01:20:50;2.57;;;1.87;;
78015;SDS011;67223;51.102;5.882;2023-07-09T01:23:18;1.63;;;1.52;;
78015;SDS011;67223;51.102;5.882;2023-07-09T01:25:46;3.63;;;2.25;;
78015;SDS011;67223;51.102;5.882;2023-07-09T01:28:18;3.60;;;2.47;;
78015;SDS011;67223;51.102;5.882;2023-07-09T01:30:46;2.92;;;2.05;;
78015;SDS011;67223;51.102;5.882;2023-07-09T01:33:19;1.70;;;1.60;;
78015;SDS011;67223;51.102;5.882;2023-07-09T01:35:48;3.03;;;1.67;;
78015;SDS011;67223;51.102;5.882;2023-07-09T01:38:17;3.40;;;2.00;;
78015;SDS011;67223;51.102;5.882;2023-07-09T01:40:42;3.20;;;2.47;;
78015;SDS011;67223;51.102;5.882;2023-07-09T01:43:08;2.63;;;2.43;;
78015;SDS011;67223;51.102;5.882;2023-07-09T01:45:34;4.53;;;2.50;;
78015;SDS011;67223;51.102;5.882;2023-07-09T01:48:01;4.00;;;2.30;;
78015;SDS011;67223;51.102;5.882;2023-07-09T01:50:28;3.03;;;2.10;;
78015;SDS011;67223;51.102;5.882;2023-07-09T01:52:54;7.57;;;2.67;;
78015;SDS011;67223;51.102;5.882;2023-07-09T01:55:20;2.25;;;1.92;;
78015;SDS011;67223;51.102;5.882;2023-07-09T01:57:46;3.60;;;2.80;;
78015;SDS011;67223;51.102;5.882;2023-07-09T02:00:14;3.70;;;2.40;;
78015;SDS011;67223;51.102;5.882;2023-07-09T02:02:42;2.45;;;2.25;;
78015;SDS011;67223;51.102;5.882;2023-07-09T02:05:09;8.23;;;3.20;;
78015;SDS011;67223;51.102;5.882;2023-07-09T02:07:36;11.02;;;2.80;;
78015;SDS011;67223;51.102;5.882;2023-07-09T02:10:01;3.50;;;2.50;;
78015;SDS011;67223;51.102;5.882;2023-07-09T02:12:27;1.97;;;1.70;;
78015;SDS011;67223;51.102;5.882;2023-07-09T02:14:55;2.13;;;1.98;;
78015;SDS011;67223;51.102;5.882;2023-07-09T02:17:21;11.23;;;3.88;;
78015;SDS011;67223;51.102;5.882;2023-07-09T02:19:49;2.17;;;1.97;;
78015;SDS011;67223;51.102;5.882;2023-07-09T02:22:15;2.20;;;2.00;;
78015;SDS011;67223;51.102;5.882;2023-07-09T02:24:40;2.27;;;1.77;;
78015;SDS011;67223;51.102;5.882;2023-07-09T02:27:07;2.83;;;2.53;;
78015;SDS011;67223;51.102;5.882;2023-07-09T02:29:35;2.80;;;2.55;;
78015;SDS011;67223;51.102;5.882;2023-07-09T02:32:01;2.42;;;2.20;;
78015;SDS011;67223;51.102;5.882;2023-07-09T02:34:28;5.90;;;2.08;;
78015;SDS011;67223;51.102;5.882;2023-07-09T02:36:55;4.90;;;1.90;;
78015;SDS011;67223;51.102;5.882;2023-07-09T02:39:22;2.17;;;1.97;;
78015;SDS011;67223;51.102;5.882;2023-07-09T02:41:48;4.70;;;2.47;;
78015;SDS011;67223;51.102;5.882;2023-07-09T02:44:16;4.78;;;2.83;;
78015;SDS011;67223;51.102;5.882;2023-07-09T02:46:42;6.45;;;2.92;;
78015;SDS011;67223;51.102;5.882;2023-07-09T02:49:11;5.57;;;2.63;;
78015;SDS011;67223;51.102;5.882;2023-07-09T02:51:38;3.15;;;2.38;;
78015;SDS011;67223;51.102;5.882;2023-07-09T02:54:04;3.30;;;2.67;;
78015;SDS011;67223;51.102;5.882;2023-07-09T02:56:30;2.07;;;1.87;;
78015;SDS011;67223;51.102;5.882;2023-07-09T02:58:59;2.22;;;2.03;;
78015;SDS011;67223;51.102;5.882;2023-07-09T03:01:28;2.33;;;2.13;;
78015;SDS011;67223;51.102;5.882;2023-07-09T03:03:59;2.58;;;1.98;;
78015;SDS011;67223;51.102;5.882;2023-07-09T03:06:27;2.30;;;2.08;;
78015;SDS011;67223;51.102;5.882;2023-07-09T03:08:53;2.30;;;1.90;;
78015;SDS011;67223;51.102;5.882;2023-07-09T03:11:19;3.08;;;1.67;;
78015;SDS011;67223;51.102;5.882;2023-07-09T03:13:46;2.38;;;1.98;;
78015;SDS011;67223;51.102;5.882;2023-07-09T03:16:13;2.47;;;2.10;;
78015;SDS011;67223;51.102;5.882;2023-07-09T03:18:39;3.15;;;2.15;;
78015;SDS011;67223;51.102;5.882;2023-07-09T03:21:04;4.87;;;3.07;;
78015;SDS011;67223;51.102;5.882;2023-07-09T03:23:30;10.87;;;2.00;;
78015;SDS011;67223;51.102;5.882;2023-07-09T03:25:56;2.47;;;1.95;;
78015;SDS011;67223;51.102;5.882;2023-07-09T03:28:22;2.47;;;2.28;;
78015;SDS011;67223;51.102;5.882;2023-07-09T03:30:48;2.60;;;2.20;;
78015;SDS011;67223;51.102;5.882;2023-07-09T03:33:15;2.13;;;1.80;;
78015;SDS011;67223;51.102;5.882;2023-07-09T03:35:42;4.50;;;2.83;;
78015;SDS011;67223;51.102;5.882;2023-07-09T03:38:08;2.72;;;1.60;;
78015;SDS011;67223;51.102;5.882;2023-07-09T03:40:35;3.13;;;2.88;;
78015;SDS011;67223;51.102;5.882;2023-07-09T03:43:02;6.50;;;2.70;;
78015;SDS011;67223;51.102;5.882;2023-07-09T03:45:29;6.43;;;2.60;;
78015;SDS011;67223;51.102;5.882;2023-07-09T03:47:55;3.00;;;2.53;;
78015;SDS011;67223;51.102;5.882;2023-07-09T03:50:21;2.70;;;2.17;;
78015;SDS011;67223;51.102;5.882;2023-07-09T03:52:47;4.00;;;2.72;;
78015;SDS011;67223;51.102;5.882;2023-07-09T03:55:13;7.20;;;2.03;;
78015;SDS011;67223;51.102;5.882;2023-07-09T03:57:39;4.20;;;2.93;;
78015;SDS011;67223;51.102;5.882;2023-07-09T04:00:08;3.63;;;2.30;;
78015;SDS011;67223;51.102;5.882;2023-07-09T04:05:13;3.75;;;2.45;;
78015;SDS011;67223;51.102;5.882;2023-07-09T04:07:39;2.60;;;2.10;;
78015;SDS011;67223;51.102;5.882;2023-07-09T04:10:04;3.37;;;2.70;;
78015;SDS011;67223;51.102;5.882;2023-07-09T04:12:31;3.30;;;2.80;;
78015;SDS011;67223;51.102;5.882;2023-07-09T04:14:56;2.50;;;2.17;;
78015;SDS011;67223;51.102;5.882;2023-07-09T04:17:22;1.70;;;1.60;;
78015;SDS011;67223;51.102;5.882;2023-07-09T04:19:48;3.97;;;2.75;;
78015;SDS011;67223;51.102;5.882;2023-07-09T04:22:16;3.55;;;2.78;;
78015;SDS011;67223;51.102;5.882;2023-07-09T04:24:42;3.10;;;2.20;;
78015;SDS011;67223;51.102;5.882;2023-07-09T04:27:08;4.20;;;3.17;;
78015;SDS011;67223;51.102;5.882;2023-07-09T04:29:34;2.60;;;2.40;;
78015;SDS011;67223;51.102;5.882;2023-07-09T04:32:01;2.92;;;2.22;;
78015;SDS011;67223;51.102;5.882;2023-07-09T04:34:27;5.90;;;2.78;;
78015;SDS011;67223;51.102;5.882;2023-07-09T04:36:52;5.50;;;1.83;;
78015;SDS011;67223;51.102;5.882;2023-07-09T04:39:18;2.43;;;2.07;;
78015;SDS011;67223;51.102;5.882;2023-07-09T04:41:43;2.53;;;2.30;;
78015;SDS011;67223;51.102;5.882;2023-07-09T04:44:09;2.80;;;2.17;;
78015;SDS011;67223;51.102;5.882;2023-07-09T04:46:34;2.13;;;1.93;;
78015;SDS011;67223;51.102;5.882;2023-07-09T04:48:59;3.67;;;2.67;;
78015;SDS011;67223;51.102;5.882;2023-07-09T04:51:25;3.65;;;2.75;;
78015;SDS011;67223;51.102;5.882;2023-07-09T04:53:51;2.63;;;2.43;;
78015;SDS011;67223;51.102;5.882;2023-07-09T04:56:17;2.10;;;1.90;;
78015;SDS011;67223;51.102;5.882;2023-07-09T04:58:42;3.05;;;2.08;;
78015;SDS011;67223;51.102;5.882;2023-07-09T05:01:08;2.92;;;2.60;;
78015;SDS011;67223;51.102;5.882;2023-07-09T05:03:34;2.30;;;2.07;;
78015;SDS011;67223;51.102;5.882;2023-07-09T05:05:59;2.97;;;2.67;;
78015;SDS011;67223;51.102;5.882;2023-07-09T05:08:25;4.95;;;1.92;;
78015;SDS011;67223;51.102;5.882;2023-07-09T05:10:51;1.50;;;1.40;;
78015;SDS011;67223;51.102;5.882;2023-07-09T05:13:17;4.60;;;3.45;;
78015;SDS011;67223;51.102;5.882;2023-07-09T05:15:45;3.47;;;2.77;;
78015;SDS011;67223;51.102;5.882;2023-07-09T05:18:12;1.75;;;1.65;;
78015;SDS011;67223;51.102;5.882;2023-07-09T05:20:39;2.95;;;2.28;;
78015;SDS011;67223;51.102;5.882;2023-07-09T05:23:05;4.45;;;2.35;;
78015;SDS011;67223;51.102;5.882;2023-07-09T05:25:31;3.50;;;2.50;;
78015;SDS011;67223;51.102;5.882;2023-07-09T05:27:57;2.58;;;2.38;;
78015;SDS011;67223;51.102;5.882;2023-07-09T05:30:22;2.70;;;2.30;;
78015;SDS011;67223;51.102;5.882;2023-07-09T05:32:48;3.30;;;2.25;;
78015;SDS011;67223;51.102;5.882;2023-07-09T05:35:14;1.83;;;1.73;;
78015;SDS011;67223;51.102;5.882;2023-07-09T05:37:39;5.32;;;2.05;;
78015;SDS011;67223;51.102;5.882;2023-07-09T05:40:05;6.70;;;2.80;;
78015;SDS011;67223;51.102;5.882;2023-07-09T05:42:32;3.95;;;2.03;;
78015;SDS011;67223;51.102;5.882;2023-07-09T05:44:58;2.28;;;2.05;;
78015;SDS011;67223;51.102;5.882;2023-07-09T05:47:24;2.47;;;1.50;;
78015;SDS011;67223;51.102;5.882;2023-07-09T05:49:50;2.17;;;1.63;;
78015;SDS011;67223;51.102;5.882;2023-07-09T05:52:20;2.27;;;1.93;;
78015;SDS011;67223;51.102;5.882;2023-07-09T05:54:50;2.40;;;2.20;;
78015;SDS011;67223;51.102;5.882;2023-07-09T05:57:16;2.88;;;2.20;;
78015;SDS011;67223;51.102;5.882;2023-07-09T05:59:42;2.60;;;1.98;;
78015;SDS011;67223;51.102;5.882;2023-07-09T06:02:11;1.77;;;1.67;;
78015;SDS011;67223;51.102;5.882;2023-07-09T06:04:38;2.00;;;1.85;;
78015;SDS011;67223;51.102;5.882;2023-07-09T06:07:04;3.33;;;2.30;;
78015;SDS011;67223;51.102;5.882;2023-07-09T06:09:30;2.65;;;2.20;;
78015;SDS011;67223;51.102;5.882;2023-07-09T06:11:56;1.58;;;1.48;;
78015;SDS011;67223;51.102;5.882;2023-07-09T06:14:22;2.15;;;1.95;;
78015;SDS011;67223;51.102;5.882;2023-07-09T06:16:48;4.57;;;2.10;;
78015;SDS011;67223;51.102;5.882;2023-07-09T06:19:13;4.32;;;1.90;;
78015;SDS011;67223;51.102;5.882;2023-07-09T06:21:39;3.67;;;1.67;;
78015;SDS011;67223;51.102;5.882;2023-07-09T06:24:05;3.38;;;2.50;;
78015;SDS011;67223;51.102;5.882;2023-07-09T06:26:32;1.90;;;1.80;;
78015;SDS011;67223;51.102;5.882;2023-07-09T06:28:57;4.30;;;2.25;;
78015;SDS011;67223;51.102;5.882;2023-07-09T06:31:23;12.40;;;2.63;;
78015;SDS011;67223;51.102;5.882;2023-07-09T06:33:49;5.55;;;1.70;;
78015;SDS011;67223;51.102;5.882;2023-07-09T06:36:16;1.43;;;1.33;;
78015;SDS011;67223;51.102;5.882;2023-07-09T06:38:43;1.80;;;1.70;;
78015;SDS011;67223;51.102;5.882;2023-07-09T06:41:09;3.55;;;2.17;;
78015;SDS011;67223;51.102;5.882;2023-07-09T06:43:34;1.70;;;1.60;;
78015;SDS011;67223;51.102;5.882;2023-07-09T06:46:03;2.53;;;2.00;;
78015;SDS011;67223;51.102;5.882;2023-07-09T06:48:30;6.10;;;2.30;;
78015;SDS011;67223;51.102;5.882;2023-07-09T06:50:56;2.83;;;2.57;;
78015;SDS011;67223;51.102;5.882;2023-07-09T06:53:22;1.92;;;1.58;;
78015;SDS011;67223;51.102;5.882;2023-07-09T06:55:49;2.28;;;1.75;;
78015;SDS011;67223;51.102;5.882;2023-07-09T06:58:17;1.98;;;1.77;;
78015;SDS011;67223;51.102;5.882;2023-07-09T07:00:43;13.27;;;2.53;;
78015;SDS011;67223;51.102;5.882;2023-07-09T07:03:10;2.83;;;2.23;;
78015;SDS011;67223;51.102;5.882;2023-07-09T07:05:35;2.63;;;2.15;;
78015;SDS011;67223;51.102;5.882;2023-07-09T07:08:01;2.03;;;1.83;;
78015;SDS011;67223;51.102;5.882;2023-07-09T07:10:28;2.35;;;2.15;;
78015;SDS011;67223;51.102;5.882;2023-07-09T07:12:54;5.30;;;1.98;;
78015;SDS011;67223;51.102;5.882;2023-07-09T07:15:20;5.57;;;2.57;;
78015;SDS011;67223;51.102;5.882;2023-07-09T07:17:46;1.65;;;1.50;;
78015;SDS011;67223;51.102;5.882;2023-07-09T07:20:12;2.53;;;2.33;;
78015;SDS011;67223;51.102;5.882;2023-07-09T07:22:38;6.40;;;1.85;;
78015;SDS011;67223;51.102;5.882;2023-07-09T07:25:04;1.45;;;1.30;;
78015;SDS011;67223;51.102;5.882;2023-07-09T07:27:31;2.70;;;2.13;;
78015;SDS011;67223;51.102;5.882;2023-07-09T07:29:57;2.72;;;1.83;;
78015;SDS011;67223;51.102;5.882;2023-07-09T07:32:23;5.77;;;1.63;;
78015;SDS011;67223;51.102;5.882;2023-07-09T07:34:48;2.17;;;1.98;;
78015;SDS011;67223;51.102;5.882;2023-07-09T07:37:14;4.10;;;1.67;;
78015;SDS011;67223;51.102;5.882;2023-07-09T07:39:40;2.25;;;1.35;;
78015;SDS011;67223;51.102;5.882;2023-07-09T07:42:06;2.70;;;2.37;;
78015;SDS011;67223;51.102;5.882;2023-07-09T07:44:31;1.43;;;1.33;;
78015;SDS011;67223;51.102;5.882;2023-07-09T07:46:57;13.23;;;2.58;;
78015;SDS011;67223;51.102;5.882;2023-07-09T07:49:22;1.80;;;1.70;;
78015;SDS011;67223;51.102;5.882;2023-07-09T07:51:48;2.53;;;1.63;;
78015;SDS011;67223;51.102;5.882;2023-07-09T07:54:13;1.93;;;1.40;;
78015;SDS011;67223;51.102;5.882;2023-07-09T07:56:39;1.40;;;1.27;;
78015;SDS011;67223;51.102;5.882;2023-07-09T07:59:05;7.00;;;2.10;;
78015;SDS011;67223;51.102;5.882;2023-07-09T08:01:31;2.20;;;2.00;;
78015;SDS011;67223;51.102;5.882;2023-07-09T08:03:56;2.30;;;1.37;;
78015;SDS011;67223;51.102;5.882;2023-07-09T08:06:22;6.72;;;2.15;;
78015;SDS011;67223;51.102;5.882;2023-07-09T08:08:48;2.92;;;1.42;;
78015;SDS011;67223;51.102;5.882;2023-07-09T08:11:13;3.73;;;1.77;;
78015;SDS011;67223;51.102;5.882;2023-07-09T08:13:39;2.47;;;1.83;;
78015;SDS011;67223;51.102;5.882;2023-07-09T08:16:05;2.33;;;2.13;;
78015;SDS011;67223;51.102;5.882;2023-07-09T08:18:31;2.35;;;1.85;;
78015;SDS011;67223;51.102;5.882;2023-07-09T08:20:58;1.57;;;1.47;;
78015;SDS011;67223;51.102;5.882;2023-07-09T08:23:24;3.17;;;2.00;;
78015;SDS011;67223;51.102;5.882;2023-07-09T08:25:53;1.83;;;1.50;;
78015;SDS011;67223;51.102;5.882;2023-07-09T08:28:23;1.48;;;1.38;;
78015;SDS011;67223;51.102;5.882;2023-07-09T08:30:51;3.88;;;2.00;;
78015;SDS011;67223;51.102;5.882;2023-07-09T08:33:17;2.50;;;1.77;;
78015;SDS011;67223;51.102;5.882;2023-07-09T08:35:43;2.13;;;2.03;;
78015;SDS011;67223;51.102;5.882;2023-07-09T08:38:08;5.22;;;2.30;;
78015;SDS011;67223;51.102;5.882;2023-07-09T08:40:38;2.40;;;1.67;;
78015;SDS011;67223;51.102;5.882;2023-07-09T08:43:49;1.45;;;1.35;;
78015;SDS011;67223;51.102;5.882;2023-07-09T08:49:16;3.00;;;1.63;;
78015;SDS011;67223;51.102;5.882;2023-07-09T08:51:46;1.60;;;1.50;;
78015;SDS011;67223;51.102;5.882;2023-07-09T08:54:25;1.98;;;1.77;;
78015;SDS011;67223;51.102;5.882;2023-07-09T08:56:55;2.45;;;1.48;;
78015;SDS011;67223;51.102;5.882;2023-07-09T08:59:24;3.00;;;1.15;;
78015;SDS011;67223;51.102;5.882;2023-07-09T09:01:52;8.10;;;2.67;;
78015;SDS011;67223;51.102;5.882;2023-07-09T09:04:29;1.77;;;1.63;;
78015;SDS011;67223;51.102;5.882;2023-07-09T09:09:32;1.13;;;1.10;;
78015;SDS011;67223;51.102;5.882;2023-07-09T09:12:13;2.63;;;1.58;;
78015;SDS011;67223;51.102;5.882;2023-07-09T09:14:44;1.52;;;1.42;;
78015;SDS011;67223;51.102;5.882;2023-07-09T09:17:14;8.43;;;2.53;;
78015;SDS011;67223;51.102;5.882;2023-07-09T09:25:31;1.42;;;1.33;;
78015;SDS011;67223;51.102;5.882;2023-07-09T09:28:02;1.33;;;1.23;;
78015;SDS011;67223;51.102;5.882;2023-07-09T09:30:28;1.00;;;0.97;;
78015;SDS011;67223;51.102;5.882;2023-07-09T09:32:55;1.95;;;1.75;;
78015;SDS011;67223;51.102;5.882;2023-07-09T09:35:30;3.63;;;1.55;;
78015;SDS011;67223;51.102;5.882;2023-07-09T09:37:56;1.40;;;1.30;;
78015;SDS011;67223;51.102;5.882;2023-07-09T09:40:23;5.68;;;1.67;;
78015;SDS011;67223;51.102;5.882;2023-07-09T09:42:51;1.70;;;1.47;;
78015;SDS011;67223;51.102;5.882;2023-07-09T09:45:20;1.50;;;1.40;;
78015;SDS011;67223;51.102;5.882;2023-07-09T09:47:51;2.08;;;1.65;;
78015;SDS011;67223;51.102;5.882;2023-07-09T09:50:17;1.63;;;1.53;;
78015;SDS011;67223;51.102;5.882;2023-07-09T09:52:44;2.42;;;1.65;;
78015;SDS011;67223;51.102;5.882;2023-07-09T09:57:52;3.22;;;2.47;;
78015;SDS011;67223;51.102;5.882;2023-07-09T10:00:22;1.20;;;1.10;;
78015;SDS011;67223;51.102;5.882;2023-07-09T10:02:50;1.23;;;1.08;;
78015;SDS011;67223;51.102;5.882;2023-07-09T10:05:16;2.10;;;1.88;;
78015;SDS011;67223;51.102;5.882;2023-07-09T10:10:39;1.85;;;1.75;;
78015;SDS011;67223;51.102;5.882;2023-07-09T10:15:43;1.90;;;1.25;;
78015;SDS011;67223;51.102;5.882;2023-07-09T10:18:33;1.40;;;1.30;;
78015;SDS011;67223;51.102;5.882;2023-07-09T10:21:05;2.37;;;2.17;;
78015;SDS011;67223;51.102;5.882;2023-07-09T10:23:44;3.10;;;1.77;;
78015;SDS011;67223;51.102;5.882;2023-07-09T10:34:28;1.50;;;1.40;;
78015;SDS011;67223;51.102;5.882;2023-07-09T10:39:57;1.35;;;1.00;;
78015;SDS011;67223;51.102;5.882;2023-07-09T10:42:26;6.77;;;1.43;;
78015;SDS011;67223;51.102;5.882;2023-07-09T10:44:56;1.48;;;1.38;;
78015;SDS011;67223;51.102;5.882;2023-07-09T10:50:09;3.28;;;1.40;;
78015;SDS011;67223;51.102;5.882;2023-07-09T10:52:41;1.45;;;1.33;;
78015;SDS011;67223;51.102;5.882;2023-07-09T10:58:30;1.52;;;1.42;;
78015;SDS011;67223;51.102;5.882;2023-07-09T11:01:00;2.00;;;1.27;;
78015;SDS011;67223;51.102;5.882;2023-07-09T11:03:33;1.67;;;1.25;;
78015;SDS011;67223;51.102;5.882;2023-07-09T11:06:08;2.47;;;2.00;;
78015;SDS011;67223;51.102;5.882;2023-07-09T11:08:39;1.10;;;1.10;;
78015;SDS011;67223;51.102;5.882;2023-07-09T11:11:41;0.98;;;0.95;;
78015;SDS011;67223;51.102;5.882;2023-07-09T11:14:09;1.63;;;1.52;;
78015;SDS011;67223;51.102;5.882;2023-07-09T11:16:43;5.82;;;2.13;;
78015;SDS011;67223;51.102;5.882;2023-07-09T11:19:17;2.17;;;1.40;;
78015;SDS011;67223;51.102;5.882;2023-07-09T11:21:57;3.50;;;2.00;;
78015;SDS011;67223;51.102;5.882;2023-07-09T11:24:34;1.58;;;1.48;;
78015;SDS011;67223;51.102;5.882;2023-07-09T11:27:18;3.97;;;1.73;;
78015;SDS011;67223;51.102;5.882;2023-07-09T11:30:44;4.50;;;2.03;;
78015;SDS011;67223;51.102;5.882;2023-07-09T11:32:47;5.03;;;1.67;;
78015;SDS011;67223;51.102;5.882;2023-07-09T11:35:26;2.22;;;2.03;;
78015;SDS011;67223;51.102;5.882;2023-07-09T11:37:53;3.83;;;2.08;;
78015;SDS011;67223;51.102;5.882;2023-07-09T11:40:19;3.23;;;1.40;;
78015;SDS011;67223;51.102;5.882;2023-07-09T11:42:47;2.72;;;1.45;;
78015;SDS011;67223;51.102;5.882;2023-07-09T11:45:17;9.32;;;2.03;;
78015;SDS011;67223;51.102;5.882;2023-07-09T11:48:29;2.72;;;1.90;;
78015;SDS011;67223;51.102;5.882;2023-07-09T11:50:39;4.35;;;2.03;;
78015;SDS011;67223;51.102;5.882;2023-07-09T11:55:54;7.03;;;1.65;;
78015;SDS011;67223;51.102;5.882;2023-07-09T11:58:20;3.50;;;2.23;;
78015;SDS011;67223;51.102;5.882;2023-07-09T12:00:50;0.95;;;0.95;;
78015;SDS011;67223;51.102;5.882;2023-07-09T12:03:18;1.27;;;1.20;;
78015;SDS011;67223;51.102;5.882;2023-07-09T12:05:53;1.50;;;1.40;;
78015;SDS011;67223;51.102;5.882;2023-07-09T12:08:23;3.07;;;1.23;;
78015;SDS011;67223;51.102;5.882;2023-07-09T12:10:57;4.32;;;1.50;;
78015;SDS011;67223;51.102;5.882;2023-07-09T12:13:23;2.27;;;2.07;;
78015;SDS011;67223;51.102;5.882;2023-07-09T12:15:48;5.07;;;2.58;;
78015;SDS011;67223;51.102;5.882;2023-07-09T12:18:14;2.03;;;1.60;;
78015;SDS011;67223;51.102;5.882;2023-07-09T12:20:41;4.18;;;1.70;;
78015;SDS011;67223;51.102;5.882;2023-07-09T12:23:22;8.43;;;2.80;;
78015;SDS011;67223;51.102;5.882;2023-07-09T12:25:52;3.60;;;2.23;;
78015;SDS011;67223;51.102;5.882;2023-07-09T12:28:19;4.35;;;3.35;;
78015;SDS011;67223;51.102;5.882;2023-07-09T12:30:50;6.45;;;4.03;;
78015;SDS011;67223;51.102;5.882;2023-07-09T12:33:17;10.63;;;5.05;;
78015;SDS011;67223;51.102;5.882;2023-07-09T12:35:45;9.52;;;5.97;;
78015;SDS011;67223;51.102;5.882;2023-07-09T12:38:21;15.00;;;6.37;;
78015;SDS011;67223;51.102;5.882;2023-07-09T12:40:48;7.75;;;6.38;;
78015;SDS011;67223;51.102;5.882;2023-07-09T12:43:26;9.35;;;7.25;;
78015;SDS011;67223;51.102;5.882;2023-07-09T12:45:53;12.38;;;6.30;;
78015;SDS011;67223;51.102;5.882;2023-07-09T12:48:21;9.57;;;5.78;;
78015;SDS011;67223;51.102;5.882;2023-07-09T12:50:50;16.67;;;10.47;;
78015;SDS011;67223;51.102;5.882;2023-07-09T12:53:19;16.00;;;8.07;;
78015;SDS011;67223;51.102;5.882;2023-07-09T12:55:48;12.02;;;6.82;;
78015;SDS011;67223;51.102;5.882;2023-07-09T12:58:23;6.18;;;5.57;;
78015;SDS011;67223;51.102;5.882;2023-07-09T13:00:52;10.60;;;7.13;;
78015;SDS011;67223;51.102;5.882;2023-07-09T13:03:20;17.07;;;9.03;;
78015;SDS011;67223;51.102;5.882;2023-07-09T13:05:53;8.90;;;7.38;;
78015;SDS011;67223;51.102;5.882;2023-07-09T13:08:24;9.23;;;6.03;;
78015;SDS011;67223;51.102;5.882;2023-07-09T13:10:50;6.93;;;4.35;;
78015;SDS011;67223;51.102;5.882;2023-07-09T13:13:18;17.42;;;7.32;;
78015;SDS011;67223;51.102;5.882;2023-07-09T13:15:52;6.27;;;4.67;;
78015;SDS011;67223;51.102;5.882;2023-07-09T13:18:26;7.68;;;5.72;;
78015;SDS011;67223;51.102;5.882;2023-07-09T13:20:53;3.78;;;3.40;;
78015;SDS011;67223;51.102;5.882;2023-07-09T13:23:20;7.78;;;5.68;;
78015;SDS011;67223;51.102;5.882;2023-07-09T13:25:55;6.50;;;3.38;;
78015;SDS011;67223;51.102;5.882;2023-07-09T13:28:30;5.27;;;4.77;;
78015;SDS011;67223;51.102;5.882;2023-07-09T13:31:01;5.00;;;4.53;;
78015;SDS011;67223;51.102;5.882;2023-07-09T13:33:32;10.93;;;5.47;;
78015;SDS011;67223;51.102;5.882;2023-07-09T13:35:57;6.93;;;4.37;;
78015;SDS011;67223;51.102;5.882;2023-07-09T13:38:24;3.83;;;2.23;;
78015;SDS011;67223;51.102;5.882;2023-07-09T13:40:51;4.80;;;3.30;;
78015;SDS011;67223;51.102;5.882;2023-07-09T13:43:23;6.30;;;4.70;;
78015;SDS011;67223;51.102;5.882;2023-07-09T13:45:51;3.50;;;3.20;;
78015;SDS011;67223;51.102;5.882;2023-07-09T13:48:18;4.77;;;2.90;;
78015;SDS011;67223;51.102;5.882;2023-07-09T13:50:47;1.98;;;1.75;;
78015;SDS011;67223;51.102;5.882;2023-07-09T13:53:15;3.03;;;2.50;;
78015;SDS011;67223;51.102;5.882;2023-07-09T13:55:43;8.57;;;6.35;;
78015;SDS011;67223;51.102;5.882;2023-07-09T13:58:11;3.92;;;3.15;;
78015;SDS011;67223;51.102;5.882;2023-07-09T14:00:38;6.50;;;3.27;;
78015;SDS011;67223;51.102;5.882;2023-07-09T14:03:14;5.00;;;3.75;;
78015;SDS011;67223;51.102;5.882;2023-07-09T14:05:47;1.85;;;1.20;;
78015;SDS011;67223;51.102;5.882;2023-07-09T14:08:13;2.58;;;2.35;;
78015;SDS011;67223;51.102;5.882;2023-07-09T14:10:39;11.45;;;6.15;;
78015;SDS011;67223;51.102;5.882;2023-07-09T14:13:05;10.63;;;7.60;;
78015;SDS011;67223;51.102;5.882;2023-07-09T14:15:37;7.50;;;4.70;;
78015;SDS011;67223;51.102;5.882;2023-07-09T14:18:04;2.43;;;2.20;;
78015;SDS011;67223;51.102;5.882;2023-07-09T14:20:30;12.85;;;7.22;;
78015;SDS011;67223;51.102;5.882;2023-07-09T14:22:55;2.53;;;2.00;;
78015;SDS011;67223;51.102;5.882;2023-07-09T14:25:22;7.07;;;3.50;;
78015;SDS011;67223;51.102;5.882;2023-07-09T14:27:49;11.60;;;4.93;;
78015;SDS011;67223;51.102;5.882;2023-07-09T14:30:17;7.17;;;4.93;;
78015;SDS011;67223;51.102;5.882;2023-07-09T14:32:45;3.72;;;3.25;;
78015;SDS011;67223;51.102;5.882;2023-07-09T14:35:13;6.57;;;5.20;;
78015;SDS011;67223;51.102;5.882;2023-07-09T14:37:48;5.90;;;2.92;;
78015;SDS011;67223;51.102;5.882;2023-07-09T14:40:15;3.65;;;2.90;;
78015;SDS011;67223;51.102;5.882;2023-07-09T14:42:42;6.27;;;4.47;;
78015;SDS011;67223;51.102;5.882;2023-07-09T14:45:42;4.97;;;3.45;;
78015;SDS011;67223;51.102;5.882;2023-07-09T14:48:00;3.88;;;2.95;;
78015;SDS011;67223;51.102;5.882;2023-07-09T14:50:26;3.30;;;2.37;;
78015;SDS011;67223;51.102;5.882;2023-07-09T14:52:51;3.85;;;2.70;;
78015;SDS011;67223;51.102;5.882;2023-07-09T14:55:21;5.03;;;2.23;;
78015;SDS011;67223;51.102;5.882;2023-07-09T14:57:49;8.25;;;3.28;;
78015;SDS011;67223;51.102;5.882;2023-07-09T15:00:16;9.57;;;5.85;;
78015;SDS011;67223;51.102;5.882;2023-07-09T15:02:43;3.33;;;2.63;;
78015;SDS011;67223;51.102;5.882;2023-07-09T15:05:16;6.53;;;4.07;;
78015;SDS011;67223;51.102;5.882;2023-07-09T15:07:44;27.73;;;3.88;;
78015;SDS011;67223;51.102;5.882;2023-07-09T15:10:23;3.28;;;2.88;;
78015;SDS011;67223;51.102;5.882;2023-07-09T15:12:51;8.75;;;4.85;;
78015;SDS011;67223;51.102;5.882;2023-07-09T15:17:50;6.43;;;4.80;;
78015;SDS011;67223;51.102;5.882;2023-07-09T15:20:17;3.20;;;2.90;;
78015;SDS011;67223;51.102;5.882;2023-07-09T15:22:45;2.70;;;2.50;;
78015;SDS011;67223;51.102;5.882;2023-07-09T15:25:15;6.65;;;5.00;;
78015;SDS011;67223;51.102;5.882;2023-07-09T15:27:44;5.95;;;4.63;;
78015;SDS011;67223;51.102;5.882;2023-07-09T15:30:14;4.03;;;3.23;;
78015;SDS011;67223;51.102;5.882;2023-07-09T15:32:39;5.60;;;4.53;;
78015;SDS011;67223;51.102;5.882;2023-07-09T15:35:05;4.07;;;3.40;;
78015;SDS011;67223;51.102;5.882;2023-07-09T15:37:30;5.45;;;3.75;;
78015;SDS011;67223;51.102;5.882;2023-07-09T15:39:56;5.67;;;3.73;;
78015;SDS011;67223;51.102;5.882;2023-07-09T15:42:21;3.53;;;2.63;;